Hiyodori — JD2366 — position and weather

sailwx.info

Track history (hours):
 
Tides and Currents Weather Stations Pressure Air Temp Water Temp Dewpoint Dewpoint Depression Visibility Wind Speed Wind Dir Waves Ship Positions

Hiyodori

Last reported at 2017-Jan-18 06:23 UTC. Time now 2017-Jan-20 07:58 UTC.
Position N 34°35' E 134°53'.

Length 88 m; draft 3.6 m.

Type: Cargo ship. MMSI: 431000132.

Date/timePositionNaut miles runAvg speedWind from/ knotsBaromVisibWave heightAir tempDewpointWater temp
2017-Jan-18 06:23N 34°35' E 134°53'911.4
2017-Jan-18 05:33N 34°36' E 135°04'10 9.6
2017-Jan-18 04:33N 34°39' E 135°15'1 1.4
2017-Jan-18 03:33N 34°38' E 135°16'1 1.4
2017-Jan-18 02:33N 34°37' E 135°17'7 6.7
2017-Jan-18 01:33N 34°32' E 135°13'2311.4
2017-Jan-17 23:33N 34°12' E 134°59'1211.7
2017-Jan-17 22:33N 33°60' E 135°00'  
2017-Jan-14 18:12N 35°07' E 139°42'812.0
2017-Jan-14 17:33N 35°14' E 139°46'1110.8
2017-Jan-14 16:33N 35°24' E 139°41'0 0.0
2017-Jan-14 15:32N 35°24' E 139°41'0 0.0
2017-Jan-14 14:32N 35°24' E 139°41'1 1.1
2017-Jan-14 13:33N 35°23' E 139°40'0 0.1
2017-Jan-14 12:32N 35°23' E 139°40'0 0.0
2017-Jan-14 11:32N 35°23' E 139°40'0 0.0
2017-Jan-14 10:32N 35°23' E 139°40'0 0.0
2017-Jan-14 09:32N 35°23' E 139°40'0 0.0
2017-Jan-14 08:32N 35°23' E 139°40'0 0.0
2017-Jan-14 07:32N 35°23' E 139°40'0 0.0
2017-Jan-14 06:32N 35°23' E 139°40'1 0.6
2017-Jan-14 05:34N 35°23' E 139°40'1110.6
2017-Jan-14 04:32N 35°14' E 139°47'  
2017-Jan-10 10:32N 35°08' E 139°43'1010.2
2017-Jan-10 09:33N 35°18' E 139°44'1010.1
2017-Jan-10 08:33N 35°28' E 139°46'8 8.3
2017-Jan-10 07:34N 35°36' E 139°46'0 0.5
2017-Jan-10 06:33N 35°36' E 139°46'0 0.1
2017-Jan-10 05:32N 35°36' E 139°46'0 0.0
2017-Jan-10 04:29N 35°36' E 139°46'3 3.0
2017-Jan-10 03:33N 35°34' E 139°49'4 3.8
2017-Jan-10 02:33N 35°33' E 139°53'0 0.1
2017-Jan-10 01:33N 35°33' E 139°53'1010.0
2017-Jan-10 00:33N 35°25' E 139°47'10 9.8
2017-Jan-09 23:31N 35°14' E 139°47'1010.3
2017-Jan-09 22:33N 35°05' E 139°43'242 6.9
2017-Jan-08 11:15N 34°02' E 134°59'912.6
2017-Jan-08 10:33N 34°11' E 134°59'1212.1
2017-Jan-08 09:33N 34°23' E 135°00'1211.8
2017-Jan-08 08:33N 34°30' E 135°11'1312.6
2017-Jan-08 07:33N 34°38' E 135°23'3 2.5
2017-Jan-08 06:30N 34°38' E 135°26'  
Track history (hours):
 
Tides and Currents Weather Stations Pressure Air Temp Water Temp Dewpoint Dewpoint Depression Visibility Wind Speed Wind Dir Waves Ship Positions

Hiyodori

Last reported at 2017-Jan-18 06:23 UTC. Time now 2017-Jan-20 07:58 UTC.
Position N 34°35' E 134°53'.

Length 88 m; draft 3.6 m.

Type: Cargo ship. MMSI: 431000132.

Date/timePositionNaut miles runAvg speedWind from/ knotsBaromVisibWave heightAir tempDewpointWater temp
2017-Jan-18 06:23N 34°35' E 134°53'911.4
2017-Jan-18 05:33N 34°36' E 135°04'10 9.6
2017-Jan-18 04:33N 34°39' E 135°15'1 1.4
2017-Jan-18 03:33N 34°38' E 135°16'1 1.4
2017-Jan-18 02:33N 34°37' E 135°17'7 6.7
2017-Jan-18 01:33N 34°32' E 135°13'2311.4
2017-Jan-17 23:33N 34°12' E 134°59'1211.7
2017-Jan-17 22:33N 33°60' E 135°00'  
2017-Jan-14 18:12N 35°07' E 139°42'812.0
2017-Jan-14 17:33N 35°14' E 139°46'1110.8
2017-Jan-14 16:33N 35°24' E 139°41'0 0.0
2017-Jan-14 15:32N 35°24' E 139°41'0 0.0
2017-Jan-14 14:32N 35°24' E 139°41'1 1.1
2017-Jan-14 13:33N 35°23' E 139°40'0 0.1
2017-Jan-14 12:32N 35°23' E 139°40'0 0.0
2017-Jan-14 11:32N 35°23' E 139°40'0 0.0
2017-Jan-14 10:32N 35°23' E 139°40'0 0.0
2017-Jan-14 09:32N 35°23' E 139°40'0 0.0
2017-Jan-14 08:32N 35°23' E 139°40'0 0.0
2017-Jan-14 07:32N 35°23' E 139°40'0 0.0
2017-Jan-14 06:32N 35°23' E 139°40'1 0.6
2017-Jan-14 05:34N 35°23' E 139°40'1110.6
2017-Jan-14 04:32N 35°14' E 139°47'  
2017-Jan-10 10:32N 35°08' E 139°43'1010.2
2017-Jan-10 09:33N 35°18' E 139°44'1010.1
2017-Jan-10 08:33N 35°28' E 139°46'8 8.3
2017-Jan-10 07:34N 35°36' E 139°46'0 0.5
2017-Jan-10 06:33N 35°36' E 139°46'0 0.1
2017-Jan-10 05:32N 35°36' E 139°46'0 0.0
2017-Jan-10 04:29N 35°36' E 139°46'3 3.0
2017-Jan-10 03:33N 35°34' E 139°49'4 3.8
2017-Jan-10 02:33N 35°33' E 139°53'0 0.1
2017-Jan-10 01:33N 35°33' E 139°53'1010.0
2017-Jan-10 00:33N 35°25' E 139°47'10 9.8
2017-Jan-09 23:31N 35°14' E 139°47'1010.3
2017-Jan-09 22:33N 35°05' E 139°43'242 6.9
2017-Jan-08 11:15N 34°02' E 134°59'912.6
2017-Jan-08 10:33N 34°11' E 134°59'1212.1
2017-Jan-08 09:33N 34°23' E 135°00'1211.8
2017-Jan-08 08:33N 34°30' E 135°11'1312.6
2017-Jan-08 07:33N 34°38' E 135°23'3 2.5
2017-Jan-08 06:30N 34°38' E 135°26'  

Dump ship's entire track history